Time;durP1;ratioP1;P1;durP2;ratioP2;P2;SDS_P1;SDS_P2;PMS_P1;PMS_P2;Temp;Humidity;BMP_temperature;BMP_pressure;BME280_temperature;BME280_humidity;BME280_pressure;Samples;Min_cycle;Max_cycle;Signal;HPM_P1;HPM_P2
2020/12/09 00:01:09;;;;;;;28.13;18.30;;;1.80;35.20;;;;;;4821612;28;20227;-95
2020/12/09 00:03:31;;;;;;;31.20;19.23;;;;;;;;;;4813068;28;20254;-95
2020/12/09 00:05:53;;;;;;;32.23;19.17;;;1.70;34.10;;;;;;4842875;28;20232;-94
2020/12/09 00:08:15;;;;;;;33.20;19.97;;;1.80;33.10;;;;;;4829375;28;20223;-95
2020/12/09 00:10:38;;;;;;;30.70;19.00;;;2.10;28.00;;;;;;4833876;28;20192;-94
2020/12/09 00:13:01;;;;;;;34.23;20.40;;;1.80;34.20;;;;;;4814800;28;20253;-95
2020/12/09 00:15:23;;;;;;;29.90;19.50;;;1.70;35.30;;;;;;4809878;28;20212;-94
2020/12/09 00:17:45;;;;;;;25.60;16.50;;;1.80;33.00;;;;;;4809802;28;20204;-94
2020/12/09 00:20:07;;;;;;;24.37;15.83;;;1.40;36.20;;;;;;4792745;28;20192;-96
2020/12/09 00:22:29;;;;;;;25.07;16.33;;;;;;;;;;4810371;28;20328;-96
2020/12/09 00:24:51;;;;;;;27.13;17.77;;;1.90;39.30;;;;;;4819713;28;20208;-95
2020/12/09 00:27:16;;;;;;;26.10;16.43;;;1.80;38.30;;;;;;4818163;28;20180;-93
2020/12/09 00:29:38;;;;;;;25.23;16.50;;;1.90;25.90;;;;;;4814303;28;20192;-93
2020/12/09 00:32:01;;;;;;;23.83;15.80;;;1.60;38.50;;;;;;4807422;28;20582;-94
2020/12/09 00:34:23;;;;;;;23.53;14.37;;;1.90;38.00;;;;;;4799488;28;20235;-91
2020/12/09 00:36:45;;;;;;;23.40;14.83;;;1.70;30.80;;;;;;4799171;28;20613;-89
2020/12/09 00:39:07;;;;;;;24.83;14.43;;;1.20;22.20;;;;;;4817216;28;20195;-92
2020/12/09 00:41:30;;;;;;;23.30;14.17;;;1.90;36.70;;;;;;4814128;28;20231;-87
2020/12/09 00:43:53;;;;;;;21.90;14.13;;;1.70;36.10;;;;;;4827064;28;20670;-84
2020/12/09 00:46:16;;;;;;;24.20;15.27;;;1.80;21.20;;;;;;5021293;23;20218;-85
2020/12/09 00:48:38;;;;;;;20.83;14.57;;;1.70;32.80;;;;;;4844602;28;20226;-93
2020/12/09 00:51:05;;;;;;;19.50;13.43;;;1.90;30.30;;;;;;4848701;28;20221;-92
2020/12/09 00:53:27;;;;;;;23.13;14.73;;;2.00;32.50;;;;;;4853198;28;20186;-95
2020/12/09 00:55:52;;;;;;;23.07;15.43;;;2.00;30.30;;;;;;4855628;28;20221;-96
2020/12/09 00:58:15;;;;;;;21.97;14.90;;;;;;;;;;4853916;28;20195;-93
2020/12/09 01:00:39;;;;;;;23.63;14.97;;;1.90;30.40;;;;;;4839806;28;20661;-94
2020/12/09 01:03:15;;;;;;;24.30;15.50;;;2.00;31.80;;;;;;4857385;28;20218;-95
2020/12/09 01:05:39;;;;;;;24.60;14.90;;;1.90;30.50;;;;;;4853202;28;20738;-96
2020/12/09 01:08:11;;;;;;;24.90;15.33;;;2.00;29.10;;;;;;4853868;28;20199;-96
2020/12/09 01:10:34;;;;;;;20.20;14.03;;;2.00;17.80;;;;;;4845256;28;20175;-94
2020/12/09 01:12:56;;;;;;;21.67;13.93;;;;;;;;;;4846997;28;20187;-96
2020/12/09 01:15:19;;;;;;;22.07;13.87;;;1.70;11.80;;;;;;4828640;28;20637;-96
2020/12/09 01:17:42;;;;;;;21.73;13.83;;;1.90;13.60;;;;;;4847094;28;20183;-96
2020/12/09 01:20:05;;;;;;;21.23;13.30;;;2.80;28.30;;;;;;4843134;28;20518;-92
2020/12/09 01:22:27;;;;;;;21.97;14.37;;;2.00;17.50;;;;;;4839491;28;20202;-93
2020/12/09 01:24:49;;;;;;;23.13;15.60;;;2.00;18.80;;;;;;4847862;28;20236;-96
2020/12/09 01:27:12;;;;;;;22.67;14.70;;;;;;;;;;4850764;28;20187;-96
2020/12/09 01:29:34;;;;;;;24.03;15.87;;;2.00;26.20;;;;;;4839031;28;20648;-96
2020/12/09 01:31:57;;;;;;;25.80;16.53;;;2.10;24.70;;;;;;4846319;28;20234;-96
2020/12/09 01:34:20;;;;;;;23.93;15.77;;;1.80;23.50;;;;;;4839071;28;20199;-96
2020/12/09 01:36:45;;;;;;;24.97;15.70;;;1.90;22.90;;;;;;4850951;28;20221;-95
2020/12/09 01:39:10;;;;;;;22.03;15.23;;;2.00;21.80;;;;;;4851168;28;20244;-94
2020/12/09 01:41:35;;;;;;;22.73;15.23;;;2.00;19.30;;;;;;4842818;28;20272;-90
2020/12/09 01:43:57;;;;;;;20.17;12.90;;;1.80;19.20;;;;;;4823112;28;20265;-91
2020/12/09 01:46:27;;;;;;;18.70;13.40;;;1.80;20.10;;;;;;4823227;28;20282;-91
2020/12/09 01:48:49;;;;;;;19.63;12.70;;;1.90;20.20;;;;;;4840074;28;20233;-90
2020/12/09 01:51:15;;;;;;;21.27;13.73;;;1.80;20.10;;;;;;4842110;28;20187;-88
2020/12/09 01:53:37;;;;;;;17.07;11.97;;;1.90;11.70;;;;;;4839841;28;20257;-91
2020/12/09 01:56:00;;;;;;;18.70;12.53;;;;;;;;;;4839985;28;20183;-89
2020/12/09 01:58:22;;;;;;;19.77;13.03;;;;;;;;;;4822412;28;20195;-86
2020/12/09 02:00:44;;;;;;;20.13;13.50;;;;;;;;;;4838666;28;20253;-95
2020/12/09 02:03:06;;;;;;;22.70;14.63;;;;;;;;;;4840856;28;20229;-90
2020/12/09 02:05:29;;;;;;;22.27;14.40;;;1.80;23.10;;;;;;4838878;28;20704;-89
2020/12/09 02:07:52;;;;;;;16.57;12.20;;;1.70;11.40;;;;;;4830277;28;20211;-87
2020/12/09 02:10:14;;;;;;;17.37;12.33;;;;;;;;;;4838806;28;21008;-89
2020/12/09 02:12:39;;;;;;;19.23;13.73;;;2.60;25.60;;;;;;4839914;28;21005;-91
2020/12/09 02:15:01;;;;;;;16.93;13.00;;;1.60;25.00;;;;;;4822408;28;20226;-89
2020/12/09 02:17:24;;;;;;;21.43;14.10;;;;;;;;;;4839672;28;20195;-93
2020/12/09 02:19:46;;;;;;;20.87;14.47;;;;;;;;;;4838857;28;20620;-90
2020/12/09 02:22:12;;;;;;;20.87;13.83;;;1.70;23.80;;;;;;4840883;28;20178;-89
2020/12/09 02:24:34;;;;;;;20.27;14.00;;;1.50;22.60;;;;;;4840449;28;20211;-91
2020/12/09 02:26:57;;;;;;;16.57;11.53;;;1.60;24.50;;;;;;4839379;28;20230;-89
2020/12/09 02:29:19;;;;;;;17.60;11.97;;;;;;;;;;4838915;28;20207;-90
2020/12/09 02:31:41;;;;;;;18.03;12.57;;;1.30;26.40;;;;;;4840133;28;21012;-91
2020/12/09 02:34:05;;;;;;;19.97;13.37;;;1.40;16.10;;;;;;4838917;28;20203;-88
2020/12/09 02:36:27;;;;;;;17.40;11.77;;;1.30;29.70;;;;;;4839794;28;21105;-88
2020/12/09 02:38:50;;;;;;;16.60;11.90;;;1.30;31.90;;;;;;4841510;28;20195;-91
2020/12/09 02:41:12;;;;;;;19.97;12.77;;;;;;;;;;4844355;28;20762;-90
2020/12/09 02:43:34;;;;;;;18.87;13.00;;;;;;;;;;4845569;28;20620;-95
2020/12/09 02:45:56;;;;;;;18.23;12.57;;;1.50;37.00;;;;;;4847616;28;20714;-94
2020/12/09 02:48:19;;;;;;;19.03;12.63;;;1.50;37.30;;;;;;4844492;28;20207;-93
2020/12/09 02:50:41;;;;;;;18.53;12.43;;;2.20;25.00;;;;;;4839694;28;20199;-93
2020/12/09 02:53:03;;;;;;;19.03;12.87;;;1.60;35.30;;;;;;4841509;28;20202;-94
2020/12/09 02:55:26;;;;;;;20.53;13.10;;;1.60;32.40;;;;;;4841111;28;20199;-94
2020/12/09 02:57:49;;;;;;;20.00;13.70;;;1.20;31.70;;;;;;4825679;28;20192;-92
2020/12/09 03:00:11;;;;;;;17.10;13.03;;;1.60;32.20;;;;;;4843421;28;20195;-93
2020/12/09 03:02:33;;;;;;;19.77;12.33;;;1.60;32.60;;;;;;4825924;28;20227;-93
2020/12/09 03:04:56;;;;;;;18.27;12.03;;;;;;;;;;4844735;28;20211;-93
2020/12/09 03:07:17;;;;;;;17.30;12.03;;;1.60;27.10;;;;;;4811475;28;20626;-92
2020/12/09 03:09:41;;;;;;;18.93;13.17;;;1.80;31.90;;;;;;4841411;28;20253;-93
2020/12/09 03:12:04;;;;;;;14.83;9.80;;;1.70;18.10;;;;;;4837680;28;20194;-89
2020/12/09 03:14:26;;;;;;;22.93;15.37;;;1.70;28.20;;;;;;4832552;28;20744;-89
2020/12/09 03:16:49;;;;;;;16.57;11.20;;;1.70;26.70;;;;;;4838856;28;20186;-90
2020/12/09 03:19:11;;;;;;;16.03;10.87;;;1.70;26.00;;;;;;4837079;28;20691;-88
2020/12/09 03:21:33;;;;;;;15.70;10.13;;;1.60;18.80;;;;;;4839067;28;20187;-85
2020/12/09 03:23:57;;;;;;;16.60;10.90;;;;;;;;;;4838867;28;20194;-92
2020/12/09 03:26:19;;;;;;;17.87;10.83;;;1.70;24.50;;;;;;4839107;28;20222;-88
2020/12/09 03:28:43;;;;;;;17.90;10.70;;;1.70;25.00;;;;;;4840952;28;20234;-93
2020/12/09 03:31:06;;;;;;;15.60;11.30;;;1.60;12.50;;;;;;4842003;28;20190;-91
2020/12/09 03:33:28;;;;;;;16.13;11.20;;;1.70;20.90;;;;;;4839190;28;20761;-88
2020/12/09 03:35:50;;;;;;;14.33;9.77;;;;;;;;;;4837828;28;20199;-86
2020/12/09 03:38:13;;;;;;;12.97;10.03;;;;;;;;;;4838542;28;20615;-92
2020/12/09 03:40:35;;;;;;;17.87;11.80;;;;;;;;;;4841217;28;20183;-93
2020/12/09 03:42:57;;;;;;;14.77;11.03;;;1.60;21.90;;;;;;4837199;28;20229;-92
2020/12/09 03:45:22;;;;;;;15.97;10.57;;;1.50;22.00;;;;;;4823958;28;20211;-90
2020/12/09 03:47:44;;;;;;;19.63;12.60;;;;;;;;;;4821325;28;20222;-93
2020/12/09 03:50:08;;;;;;;19.37;12.77;;;1.70;22.20;;;;;;4830568;28;20620;-90
2020/12/09 03:52:30;;;;;;;18.00;12.23;;;;;;;;;;4837874;28;20198;-89
2020/12/09 03:54:52;;;;;;;17.97;11.80;;;;;;;;;;4838263;28;20236;-91
2020/12/09 03:57:14;;;;;;;17.50;11.70;;;1.50;20.50;;;;;;4842685;28;20194;-92
2020/12/09 03:59:37;;;;;;;15.83;11.50;;;1.60;19.00;;;;;;4841243;28;20514;-95
2020/12/09 04:02:00;;;;;;;17.30;11.43;;;2.10;17.00;;;;;;4838981;28;20226;-95
2020/12/09 04:04:22;;;;;;;17.10;11.40;;;1.70;16.70;;;;;;4826225;28;20203;-91
2020/12/09 04:06:44;;;;;;;15.97;11.10;;;1.60;13.10;;;;;;4840542;28;20186;-92
2020/12/09 04:09:06;;;;;;;13.90;10.83;;;;;;;;;;4841643;28;20265;-91
2020/12/09 04:11:28;;;;;;;15.80;11.10;;;;;;;;;;4842934;28;20621;-92
2020/12/09 04:13:51;;;;;;;18.33;11.77;;;;;;;;;;4837530;28;20186;-90
2020/12/09 04:16:13;;;;;;;17.53;11.50;;;1.40;9.90;;;;;;4837710;28;20264;-90
2020/12/09 04:18:36;;;;;;;16.97;11.60;;;1.40;1.00;;;;;;4841429;28;20195;-91
2020/12/09 04:20:58;;;;;;;23.60;12.53;;;1.50;8.50;;;;;;4817824;28;20636;-92
2020/12/09 04:23:23;;;;;;;18.13;11.73;;;1.40;3.20;;;;;;4824190;28;20634;-88
2020/12/09 04:25:45;;;;;;;19.10;12.63;;;1.40;8.50;;;;;;4842078;28;20692;-92
2020/12/09 04:28:07;;;;;;;15.67;10.83;;;;;;;;;;4841991;28;20191;-92
2020/12/09 04:30:30;;;;;;;18.27;12.30;;;;;;;;;;4799135;28;20629;-86
2020/12/09 04:32:54;;;;;;;18.23;12.77;;;1.10;14.00;;;;;;4840474;28;20620;-90
2020/12/09 04:35:17;;;;;;;17.83;12.33;;;1.20;1.40;;;;;;4840248;28;20206;-89
2020/12/09 04:37:41;;;;;;;24.33;12.80;;;1.20;14.50;;;;;;4840340;28;20233;-93
2020/12/09 04:40:04;;;;;;;20.73;12.47;;;1.30;8.90;;;;;;4843664;28;20195;-90
2020/12/09 04:42:27;;;;;;;19.97;12.50;;;;;;;;;;4845096;28;20630;-93
2020/12/09 04:44:50;;;;;;;18.13;11.70;;;1.20;2.70;;;;;;4843044;28;20686;-89
2020/12/09 04:47:18;;;;;;;18.40;12.17;;;1.80;15.20;;;;;;4845410;28;20647;-93
2020/12/09 04:49:41;;;;;;;19.77;12.20;;;1.20;14.10;;;;;;4818306;28;20195;-94
2020/12/09 04:52:39;;;;;;;19.67;13.03;;;1.20;14.60;;;;;;4843358;28;20203;-90
2020/12/09 04:55:06;;;;;;;21.50;14.00;;;1.20;13.00;;;;;;4834219;28;20203;-94
2020/12/09 04:57:43;;;;;;;19.23;13.37;;;1.10;2.00;;;;;;4847312;28;20199;-92
2020/12/09 05:00:07;;;;;;;18.13;13.30;;;1.50;2.70;;;;;;4829713;28;20203;-94
2020/12/09 05:02:48;;;;;;;17.03;11.80;;;1.20;3.60;;;;;;4846677;28;20365;-92
2020/12/09 05:05:12;;;;;;;19.57;13.57;;;1.20;2.90;;;;;;4841817;28;20659;-91
2020/12/09 05:07:37;;;;;;;21.83;14.47;;;1.10;3.70;;;;;;4841209;28;20199;-93
2020/12/09 05:10:04;;;;;;;20.70;13.93;;;1.20;6.40;;;;;;4818930;28;20250;-93
2020/12/09 05:12:29;;;;;;;22.17;13.83;;;1.30;7.70;;;;;;4831078;28;20258;-95
2020/12/09 05:14:52;;;;;;;22.33;14.40;;;1.10;14.20;;;;;;4844906;28;20194;-90
2020/12/09 05:17:19;;;;;;;22.57;14.20;;;1.50;13.30;;;;;;4834063;28;20191;-96
2020/12/09 05:19:42;;;;;;;21.07;12.63;;;1.20;1.00;;;;;;4831305;28;21206;-91
2020/12/09 05:22:09;;;;;;;19.03;12.93;;;1.20;1.00;;;;;;4846411;28;20233;-94
2020/12/09 05:24:32;;;;;;;19.97;12.30;;;1.20;1.00;;;;;;4836366;28;20221;-92
2020/12/09 05:26:54;;;;;;;18.80;11.57;;;1.30;13.10;;;;;;4825982;28;20652;-92
2020/12/09 05:29:18;;;;;;;20.53;13.43;;;1.20;1.00;;;;;;4842141;28;20187;-91
2020/12/09 05:31:41;;;;;;;19.87;11.93;;;1.30;11.70;;;;;;4845583;28;20191;-92
2020/12/09 05:34:13;;;;;;;21.67;13.50;;;1.10;1.00;;;;;;4851485;28;20608;-90
2020/12/09 05:36:46;;;;;;;21.77;12.67;;;1.10;11.90;;;;;;4851163;28;20195;-88
2020/12/09 05:39:08;;;;;;;22.27;13.43;;;1.10;12.10;;;;;;4861442;28;20210;-88
2020/12/09 05:41:34;;;;;;;19.07;12.13;;;1.20;7.90;;;;;;4856223;28;20241;-94
2020/12/09 05:44:01;;;;;;;20.30;12.17;;;1.30;12.20;;;;;;4858295;28;20190;-92
2020/12/09 05:46:23;;;;;;;19.77;12.47;;;1.30;11.30;;;;;;4858939;28;20234;-92
2020/12/09 05:48:45;;;;;;;18.87;12.13;;;;;;;;;;4852194;28;20190;-92
2020/12/09 05:51:09;;;;;;;21.13;12.63;;;1.10;1.00;;;;;;4840470;28;20196;-89
2020/12/09 05:53:32;;;;;;;20.90;13.40;;;1.20;9.20;;;;;;4817261;28;20221;-93
2020/12/09 05:56:11;;;;;;;22.60;13.67;;;1.20;1.00;;;;;;4849386;28;20174;-96
2020/12/09 05:58:34;;;;;;;24.57;13.27;;;1.30;8.50;;;;;;4849801;28;20655;-94
2020/12/09 06:01:14;;;;;;;19.83;12.03;;;1.20;1.00;;;;;;4839478;28;20199;-94
2020/12/09 06:03:37;;;;;;;28.83;19.03;;;1.20;10.10;;;;;;4846581;28;20222;-96
2020/12/09 06:06:09;;;;;;;26.60;18.70;;;1.20;9.60;;;;;;4850468;28;20210;-92
2020/12/09 06:08:39;;;;;;;22.87;15.63;;;1.20;8.80;;;;;;4852652;28;20251;-95
2020/12/09 06:11:01;;;;;;;23.67;14.43;;;1.20;8.30;;;;;;4848554;28;20210;-95
2020/12/09 06:13:31;;;;;;;20.60;13.07;;;1.20;8.00;;;;;;4850529;28;20194;-91
2020/12/09 06:15:54;;;;;;;18.90;12.83;;;1.20;1.00;;;;;;4842567;28;20202;-92
2020/12/09 06:18:16;;;;;;;21.73;13.57;;;;;;;;;;4845938;28;20236;-96
2020/12/09 06:20:40;;;;;;;19.60;13.13;;;1.20;1.00;;;;;;4831161;28;20195;-91
2020/12/09 06:23:09;;;;;;;22.50;13.67;;;1.20;1.00;;;;;;4826105;28;20656;-88
2020/12/09 06:25:31;;;;;;;20.77;12.73;;;;;;;;;;4839689;28;20199;-94
2020/12/09 06:27:55;;;;;;;22.43;13.80;;;1.20;1.00;;;;;;4829393;28;20710;-94
2020/12/09 06:30:26;;;;;;;20.33;13.03;;;1.20;4.30;;;;;;4830832;28;20962;-96
2020/12/09 06:32:49;;;;;;;30.70;16.63;;;1.20;1.00;;;;;;4844195;28;20213;-94
2020/12/09 06:35:12;;;;;;;31.03;16.37;;;;;;;;;;4835259;28;20195;-93
2020/12/09 06:37:34;;;;;;;57.00;25.33;;;1.20;1.00;;;;;;4846636;28;20190;-94
2020/12/09 06:40:08;;;;;;;27.37;16.30;;;1.20;1.00;;;;;;4828008;28;20243;-93
2020/12/09 06:42:31;;;;;;;64.43;32.23;;;;;;;;;;4840413;28;20222;-87
2020/12/09 06:44:53;;;;;;;67.10;34.63;;;1.10;1.20;;;;;;4842963;28;20608;-93
2020/12/09 06:47:15;;;;;;;39.23;21.03;;;;;;;;;;4859003;28;20709;-93
2020/12/09 06:49:40;;;;;;;65.20;34.20;;;1.10;1.00;;;;;;4864246;28;20964;-90
2020/12/09 06:52:24;;;;;;;58.50;30.20;;;1.10;1.00;;;;;;4863525;28;20194;-90
2020/12/09 06:54:48;;;;;;;58.27;26.57;;;1.00;1.20;;;;;;4862306;28;20257;-94
2020/12/09 06:57:13;;;;;;;28.53;16.77;;;1.00;1.00;;;;;;4863394;28;20272;-87
2020/12/09 06:59:36;;;;;;;31.87;18.07;;;;;;;;;;4860613;28;20678;-91
2020/12/09 07:02:02;;;;;;;27.47;15.67;;;1.00;1.00;;;;;;4854498;28;20651;-91
2020/12/09 07:04:25;;;;;;;27.90;15.00;;;;;;;;;;4878770;28;20648;-91
2020/12/09 07:06:48;;;;;;;24.07;14.03;;;0.90;1.50;;;;;;4861433;28;20686;-92
2020/12/09 07:09:10;;;;;;;26.73;14.73;;;;;;;;;;4880999;28;20663;-90
2020/12/09 07:11:51;;;;;;;28.43;15.53;;;0.90;3.50;;;;;;4880955;28;20215;-93
2020/12/09 07:14:14;;;;;;;30.27;17.70;;;;;;;;;;4882257;28;20196;-91
2020/12/09 07:16:37;;;;;;;37.43;21.40;;;0.90;1.00;;;;;;4879068;28;21131;-88
2020/12/09 07:19:00;;;;;;;46.33;24.90;;;0.90;1.00;;;;;;4861451;28;20623;-94
2020/12/09 07:21:29;;;;;;;26.00;16.53;;;0.90;1.00;;;;;;4881168;28;20586;-93
2020/12/09 07:23:59;;;;;;;63.70;32.77;;;0.90;1.00;;;;;;4878481;28;20801;-93
2020/12/09 07:26:21;;;;;;;52.33;28.77;;;1.00;9.90;;;;;;4878089;28;20664;-93
2020/12/09 07:28:45;;;;;;;35.03;19.60;;;;;;;;;;4878362;28;20592;-87
2020/12/09 07:31:09;;;;;;;46.97;27.47;;;0.80;1.00;;;;;;4877936;28;20649;-91
2020/12/09 07:33:32;;;;;;;55.00;26.70;;;;;;;;;;4878017;28;20621;-92
2020/12/09 07:36:00;;;;;;;25.27;15.13;;;0.70;3.60;;;;;;4858036;28;20670;-90
2020/12/09 07:38:23;;;;;;;36.17;20.27;;;;;;;;;;4876820;28;20673;-84
2020/12/09 07:40:46;;;;;;;53.80;29.17;;;0.80;1.00;;;;;;4878511;28;20228;-88
2020/12/09 07:43:10;;;;;;;30.97;18.37;;;0.70;1.40;;;;;;4880011;28;20668;-87
2020/12/09 07:45:35;;;;;;;67.90;32.70;;;0.90;1.60;;;;;;4842908;28;20227;-88
2020/12/09 07:48:02;;;;;;;75.30;37.40;;;0.80;5.30;;;;;;4857980;28;20229;-88
2020/12/09 07:50:24;;;;;;;48.20;26.50;;;;;;;;;;4876009;28;20640;-89
2020/12/09 07:52:47;;;;;;;31.17;18.37;;;;;;;;;;4872875;28;20606;-91
2020/12/09 07:55:13;;;;;;;80.03;41.90;;;0.90;1.20;;;;;;4881084;28;20646;-92
2020/12/09 07:57:37;;;;;;;30.67;18.03;;;1.00;12.00;;;;;;4860465;28;20656;-94
2020/12/09 08:00:00;;;;;;;57.47;28.67;;;0.90;1.00;;;;;;4878868;28;20664;-92
2020/12/09 08:02:27;;;;;;;69.20;33.00;;;0.90;11.80;;;;;;4877125;28;20638;-95
2020/12/09 08:05:16;;;;;;;53.77;26.77;;;0.60;10.10;;;;;;4880090;28;20235;-89
2020/12/09 08:08:10;;;;;;;29.93;19.67;;;1.20;9.50;;;;;;4868097;28;20653;-92
2020/12/09 08:10:36;;;;;;;35.27;20.97;;;1.30;1.00;;;;;;4880361;28;20622;-93
2020/12/09 08:13:08;;;;;;;56.00;30.80;;;1.00;3.40;;;;;;4850704;28;20668;-94
2020/12/09 08:15:41;;;;;;;47.23;26.77;;;1.00;1.00;;;;;;4877970;28;20212;-96
2020/12/09 08:18:05;;;;;;;49.03;26.57;;;0.90;1.00;;;;;;4884901;28;20646;-93
2020/12/09 08:20:27;;;;;;;34.97;19.63;;;;;;;;;;4866036;28;20984;-94
2020/12/09 08:25:31;;;;;;;33.40;20.53;;;1.00;1.00;;;;;;4854495;28;20201;-86
2020/12/09 08:28:32;;;;;;;29.67;20.30;;;1.00;1.00;;;;;;4878559;28;20629;-96
2020/12/09 08:31:17;;;;;;;39.07;20.90;;;1.10;1.00;;;;;;4854343;28;20636;-81
2020/12/09 08:33:40;;;;;;;31.27;21.00;;;1.20;1.00;;;;;;4886889;28;20239;-80
2020/12/09 08:36:09;;;;;;;30.80;20.23;;;1.20;1.00;;;;;;4855139;28;20613;-81
2020/12/09 08:38:34;;;;;;;33.40;20.00;;;1.20;1.00;;;;;;4854843;28;20745;-81
2020/12/09 08:40:58;;;;;;;26.47;15.67;;;1.20;1.00;;;;;;4875952;28;20646;-79
2020/12/09 08:43:25;;;;;;;29.13;18.93;;;1.30;1.00;;;;;;4858255;28;20256;-86
2020/12/09 08:45:50;;;;;;;31.33;19.63;;;;;;;;;;4857360;28;20709;-85
2020/12/09 08:48:12;;;;;;;33.90;18.40;;;;;;;;;;4856955;28;20584;-83
2020/12/09 08:50:34;;;;;;;28.87;17.70;;;;;;;;;;4859639;28;20615;-85
2020/12/09 08:52:58;;;;;;;35.93;20.30;;;1.40;1.00;;;;;;4862703;28;20647;-88
2020/12/09 08:55:28;;;;;;;33.47;18.60;;;1.30;1.00;;;;;;4872522;28;20215;-96
2020/12/09 08:57:50;;;;;;;27.87;17.27;;;;;;;;;;4877234;28;20649;-94
2020/12/09 09:00:19;;;;;;;24.00;14.53;;;1.30;1.00;;;;;;4860255;28;20221;-91
2020/12/09 09:02:43;;;;;;;25.13;16.90;;;;;;;;;;4838098;28;20675;-91
2020/12/09 09:05:32;;;;;;;27.23;17.40;;;1.40;1.00;;;;;;4843284;28;21071;-88
2020/12/09 09:07:54;;;;;;;28.57;19.17;;;1.40;1.00;;;;;;4880602;28;20683;-93
2020/12/09 09:10:17;;;;;;;40.63;24.50;;;1.40;1.00;;;;;;4879348;28;20185;-92
2020/12/09 09:12:43;;;;;;;42.70;24.23;;;1.30;1.00;;;;;;4862290;28;20648;-92
2020/12/09 09:15:07;;;;;;;31.73;18.03;;;1.50;1.00;;;;;;4881027;28;20622;-90
2020/12/09 09:17:35;;;;;;;25.27;16.50;;;1.50;1.00;;;;;;4878469;28;20643;-92
2020/12/09 09:20:02;;;;;;;37.47;22.77;;;;;;;;;;4880228;28;20200;-93
2020/12/09 09:22:27;;;;;;;33.30;19.80;;;;;;;;;;4882101;28;20613;-92
2020/12/09 09:24:51;;;;;;;27.67;16.20;;;1.40;1.00;;;;;;4881013;28;20599;-91
2020/12/09 09:27:16;;;;;;;23.57;14.53;;;;;;;;;;4883018;28;20282;-94
2020/12/09 09:29:43;;;;;;;18.73;12.23;;;1.20;1.00;;;;;;4882108;28;20602;-91
2020/12/09 09:32:05;;;;;;;16.80;10.83;;;;;;;;;;4866290;28;20190;-92
2020/12/09 09:34:28;;;;;;;20.07;12.57;;;1.30;1.00;;;;;;4883954;28;20983;-93
2020/12/09 09:36:50;;;;;;;26.63;14.77;;;1.40;1.00;;;;;;4848342;28;20628;-96
2020/12/09 09:39:13;;;;;;;27.80;16.40;;;;;;;;;;4881186;28;20181;-93
2020/12/09 09:41:36;;;;;;;27.70;14.30;;;;;;;;;;4882673;28;20724;-94
2020/12/09 09:43:58;;;;;;;21.07;13.30;;;;;;;;;;4881419;28;20259;-93
2020/12/09 09:46:23;;;;;;;21.97;13.47;;;1.20;1.00;;;;;;4880017;28;20646;-91
2020/12/09 09:48:49;;;;;;;27.00;15.63;;;;;;;;;;4881893;28;20559;-91
2020/12/09 09:51:18;;;;;;;25.37;14.40;;;1.20;1.00;;;;;;4880578;28;20193;-92
2020/12/09 09:53:42;;;;;;;21.33;13.03;;;1.20;1.00;;;;;;4874467;28;20201;-88
2020/12/09 09:56:06;;;;;;;24.53;13.37;;;0.60;1.00;;;;;;4880053;28;20227;-90
2020/12/09 09:58:29;;;;;;;24.20;13.50;;;;;;;;;;4879461;28;20212;-89
2020/12/09 10:00:51;;;;;;;20.37;12.40;;;;;;;;;;4877036;28;20850;-88
2020/12/09 10:03:16;;;;;;;26.17;14.03;;;0.10;1.00;;;;;;4878165;28;20630;-92
2020/12/09 10:05:39;;;;;;;20.20;12.00;;;;;;;;;;4881149;28;20232;-87
2020/12/09 10:08:05;;;;;;;19.80;12.50;;;1.00;1.00;;;;;;4861818;28;20659;-88
2020/12/09 10:10:39;;;;;;;24.13;15.00;;;1.10;1.00;;;;;;4861766;28;20698;-89
2020/12/09 10:13:01;;;;;;;18.93;12.67;;;;;;;;;;4880776;28;20194;-89
2020/12/09 10:15:26;;;;;;;21.73;13.20;;;1.00;1.00;;;;;;4879390;28;20606;-89
2020/12/09 10:20:32;;;;;;;21.80;13.50;;;;;;;;;;4865692;28;20658;-88
2020/12/09 10:22:54;;;;;;;23.63;14.73;;;;;;;;;;4865351;28;20644;-94
2020/12/09 10:25:19;;;;;;;32.10;17.97;;;1.00;1.00;;;;;;4877077;28;20618;-91
2020/12/09 10:27:44;;;;;;;24.50;15.17;;;0.90;1.00;;;;;;4878742;28;20626;-90
2020/12/09 10:30:06;;;;;;;28.80;17.77;;;1.10;1.00;;;;;;4878761;28;20182;-90
2020/12/09 10:32:37;;;;;;;28.70;18.57;;;1.10;1.00;;;;;;4879074;28;20591;-89
2020/12/09 10:35:00;;;;;;;29.77;17.50;;;;;;;;;;4879384;28;20602;-88
2020/12/09 10:37:22;;;;;;;24.13;15.33;;;1.20;1.00;;;;;;4877937;28;20591;-92
2020/12/09 10:39:51;;;;;;;22.80;14.37;;;;;;;;;;4860644;28;20209;-88
2020/12/09 10:42:14;;;;;;;22.03;13.83;;;1.20;1.00;;;;;;4878666;28;20255;-93
2020/12/09 10:44:36;;;;;;;23.50;14.30;;;1.30;1.00;;;;;;4878447;28;20595;-91
2020/12/09 10:47:01;;;;;;;27.47;16.30;;;;;;;;;;4877920;28;20295;-89
2020/12/09 10:49:31;;;;;;;25.10;16.50;;;;;;;;;;4877923;28;20232;-87
2020/12/09 10:52:03;;;;;;;24.20;14.20;;;1.20;1.00;;;;;;4878686;28;20256;-89
2020/12/09 10:54:27;;;;;;;17.83;12.23;;;1.30;1.00;;;;;;4871156;28;20606;-87
2020/12/09 10:56:49;;;;;;;23.00;13.57;;;;;;;;;;4878105;28;20676;-92
2020/12/09 10:59:18;;;;;;;27.00;15.97;;;1.30;1.00;;;;;;4858968;28;20224;-91
2020/12/09 11:01:43;;;;;;;29.57;17.13;;;1.40;1.00;;;;;;4875720;28;20654;-93
2020/12/09 11:04:06;;;;;;;31.07;17.53;;;;;;;;;;4860525;28;20186;-89
2020/12/09 11:06:35;;;;;;;25.40;15.23;;;1.40;1.00;;;;;;4878941;28;20622;-95
2020/12/09 11:09:01;;;;;;;25.80;15.20;;;1.50;1.00;;;;;;4878376;28;20201;-93
2020/12/09 11:11:26;;;;;;;25.83;14.80;;;1.40;1.00;;;;;;4877677;28;20189;-92
2020/12/09 11:13:49;;;;;;;34.07;17.60;;;;;;;;;;4878359;28;20586;-89
2020/12/09 11:16:19;;;;;;;25.27;15.13;;;1.40;1.00;;;;;;4859683;28;20662;-86
2020/12/09 11:18:46;;;;;;;22.73;13.97;;;1.50;1.00;;;;;;4859483;28;20197;-89
2020/12/09 11:21:08;;;;;;;23.20;14.57;;;;;;;;;;4877211;28;20243;-89
2020/12/09 11:23:30;;;;;;;26.90;15.03;;;1.40;1.00;;;;;;4878235;28;20657;-93
2020/12/09 11:25:54;;;;;;;26.07;16.73;;;1.50;1.00;;;;;;4877386;28;20189;-89
2020/12/09 11:28:17;;;;;;;22.63;13.07;;;;;;;;;;4876519;28;20255;-89
2020/12/09 11:30:41;;;;;;;24.57;14.33;;;1.20;1.00;;;;;;4876368;28;20582;-87
2020/12/09 11:33:09;;;;;;;22.93;15.23;;;1.40;1.00;;;;;;4877552;28;20185;-91
2020/12/09 11:35:31;;;;;;;26.30;15.37;;;;;;;;;;4877976;28;20792;-86
2020/12/09 11:37:54;;;;;;;33.87;21.50;;;1.30;1.00;;;;;;4859537;28;20198;-89
2020/12/09 11:40:20;;;;;;;33.60;20.23;;;;;;;;;;4875493;28;20247;-89
2020/12/09 11:42:42;;;;;;;23.83;15.00;;;1.30;1.00;;;;;;4876547;28;20621;-84
2020/12/09 11:45:07;;;;;;;35.40;19.33;;;1.20;1.00;;;;;;4877044;28;20212;-86
2020/12/09 11:47:30;;;;;;;25.17;14.40;;;;;;;;;;4876778;28;20704;-90
2020/12/09 11:49:54;;;;;;;23.03;12.50;;;1.20;1.00;;;;;;4876801;28;20609;-90
2020/12/09 11:52:21;;;;;;;19.43;12.50;;;1.20;1.00;;;;;;4875267;28;20653;-88
2020/12/09 11:54:44;;;;;;;19.73;12.20;;;;;;;;;;4877211;28;20583;-92
2020/12/09 11:57:07;;;;;;;22.10;15.17;;;;;;;;;;4877247;28;20622;-90
2020/12/09 11:59:32;;;;;;;23.27;14.53;;;1.00;1.00;;;;;;4876047;28;20590;-91
2020/12/09 12:01:54;;;;;;;21.60;13.43;;;;;;;;;;4853033;28;20230;-88
2020/12/09 12:04:17;;;;;;;21.13;13.97;;;;;;;;;;4876549;28;20591;-88
2020/12/09 12:06:40;;;;;;;23.63;13.63;;;1.10;1.00;;;;;;4876901;28;20586;-90
2020/12/09 12:09:02;;;;;;;23.57;15.03;;;;;;;;;;4876613;28;20338;-84
2020/12/09 12:11:28;;;;;;;23.83;13.37;;;1.00;1.00;;;;;;4859522;28;20623;-89
2020/12/09 12:13:51;;;;;;;27.60;16.03;;;1.00;1.00;;;;;;4876635;28;20416;-92
2020/12/09 12:16:14;;;;;;;30.20;18.60;;;1.00;1.00;;;;;;4877079;28;20618;-92
2020/12/09 12:18:36;;;;;;;26.87;16.17;;;;;;;;;;4877051;28;20598;-91
2020/12/09 12:21:01;;;;;;;25.57;15.43;;;;;;;;;;4860192;28;20642;-90
2020/12/09 12:23:24;;;;;;;51.93;28.73;;;0.90;1.00;;;;;;4860088;28;20650;-91
2020/12/09 12:25:47;;;;;;;27.70;16.00;;;;;;;;;;4859733;28;20634;-88
2020/12/09 12:28:09;;;;;;;27.83;17.40;;;;;;;;;;4877932;28;20638;-91
2020/12/09 12:30:32;;;;;;;27.17;16.93;;;;;;;;;;4859824;28;21538;-88
2020/12/09 12:32:54;;;;;;;25.47;16.77;;;;;;;;;;4877893;28;20586;-92
2020/12/09 12:35:16;;;;;;;28.17;17.47;;;;;;;;;;4877288;28;20617;-94
2020/12/09 12:37:39;;;;;;;23.17;14.97;;;;;;;;;;4859094;28;20657;-90
2020/12/09 12:40:05;;;;;;;20.97;13.87;;;0.90;1.00;;;;;;4862880;28;20587;-92
2020/12/09 12:42:27;;;;;;;24.10;15.30;;;0.90;1.00;;;;;;4880900;28;20939;-92
2020/12/09 12:44:50;;;;;;;23.33;14.80;;;;;;;;;;4862773;28;20202;-92
2020/12/09 12:47:12;;;;;;;31.77;18.33;;;;;;;;;;4880877;28;20755;-88
2020/12/09 12:49:34;;;;;;;20.70;13.10;;;;;;;;;;4845901;28;20620;-95
2020/12/09 12:51:58;;;;;;;30.17;17.80;;;0.80;1.00;;;;;;4846711;28;20619;-89
2020/12/09 12:54:20;;;;;;;33.57;18.37;;;;;;;;;;4861915;28;20623;-91
2020/12/09 12:56:48;;;;;;;18.87;12.00;;;0.80;1.00;;;;;;4879843;28;20648;-89
2020/12/09 12:59:10;;;;;;;20.70;13.47;;;;;;;;;;4879728;28;20621;-90